createdAt,value
2022-11-14T00:00:50.859Z,96279.34
2022-11-14T00:03:36.671Z,96267.56
2022-11-14T00:06:22.391Z,96261.88
2022-11-14T00:09:08.212Z,96262.91
2022-11-14T00:11:53.853Z,96265.31
2022-11-14T00:14:39.581Z,96263.22
2022-11-14T00:17:24.942Z,96263.03
2022-11-14T00:20:12.538Z,96271.34
2022-11-14T00:22:58.119Z,96271.00
2022-11-14T00:25:46.058Z,96262.19
2022-11-14T00:28:31.830Z,96265.31
2022-11-14T00:31:17.851Z,96275.28
2022-11-14T00:34:03.179Z,96273.34
2022-11-14T00:36:49.038Z,96264.44
2022-11-14T00:39:34.610Z,96267.75
2022-11-14T00:42:20.087Z,96266.88
2022-11-14T00:45:06.098Z,96259.38
2022-11-14T00:47:51.817Z,96260.59
2022-11-14T00:50:38.251Z,96259.03
2022-11-14T00:53:23.768Z,96258.19
2022-11-14T00:56:09.288Z,96247.91
2022-11-14T00:58:55.210Z,96247.16
2022-11-14T01:01:40.905Z,96245.69
2022-11-14T01:04:26.740Z,96245.19
2022-11-14T01:07:12.541Z,96238.75
2022-11-14T01:09:58.672Z,96232.34
2022-11-14T01:12:44.480Z,96230.78
2022-11-14T01:15:30.225Z,96237.53
2022-11-14T01:18:21.313Z,96233.16
2022-11-14T01:21:12.777Z,96234.03
2022-11-14T01:23:58.765Z,96236.50
2022-11-14T01:26:44.239Z,96238.00
2022-11-14T01:29:30.089Z,96250.00
2022-11-14T01:32:16.088Z,96244.00
2022-11-14T01:35:01.662Z,96249.47
2022-11-14T01:37:47.220Z,96243.59
2022-11-14T01:40:33.495Z,96249.56
2022-11-14T01:43:19.438Z,96249.16
2022-11-14T01:46:08.186Z,96254.50
2022-11-14T01:49:15.373Z,96239.19
2022-11-14T01:52:07.614Z,96235.78
2022-11-14T01:54:55.941Z,96227.63
2022-11-14T01:57:46.259Z,96224.84
2022-11-14T02:00:31.811Z,96221.72
2022-11-14T02:03:18.270Z,96215.66
2022-11-14T02:06:06.570Z,96208.25
2022-11-14T02:08:53.051Z,96207.38
2022-11-14T02:11:44.076Z,96217.66
2022-11-14T02:14:30.894Z,96218.72
2022-11-14T02:17:34.759Z,96216.78
2022-11-14T02:20:29.661Z,96212.19
2022-11-14T02:23:16.227Z,96217.56
2022-11-14T02:26:02.009Z,96210.16
2022-11-14T02:28:49.672Z,96203.31
2022-11-14T02:31:35.410Z,96211.22
2022-11-14T02:34:21.129Z,96210.34
2022-11-14T02:37:07.770Z,96202.53
2022-11-14T02:39:53.554Z,96200.38
2022-11-14T02:42:39.300Z,96207.44
2022-11-14T02:45:25.288Z,96193.59
2022-11-14T02:48:10.774Z,96187.50
2022-11-14T02:50:56.721Z,96187.81
2022-11-14T02:53:42.596Z,96187.25
2022-11-14T02:56:28.071Z,96186.84
2022-11-14T02:59:13.853Z,96183.59
2022-11-14T03:01:59.181Z,96184.97
2022-11-14T03:04:44.928Z,96187.66
2022-11-14T03:07:30.386Z,96187.41
2022-11-14T03:10:16.354Z,96192.63
2022-11-14T03:13:02.279Z,96196.38
2022-11-14T03:15:47.931Z,96185.66
2022-11-14T03:18:33.881Z,96184.78
2022-11-14T03:21:21.879Z,96184.38
2022-11-14T03:24:08.330Z,96185.41
2022-11-14T03:26:53.904Z,96185.41
2022-11-14T03:29:39.794Z,96184.53
2022-11-14T03:32:25.472Z,96187.22
2022-11-14T03:35:11.619Z,96182.91
2022-11-14T03:37:57.208Z,96180.56
2022-11-14T03:40:43.300Z,96186.22
2022-11-14T03:43:34.473Z,96178.63
2022-11-14T03:46:20.879Z,96181.94
2022-11-14T03:49:06.583Z,96167.34
2022-11-14T03:51:52.369Z,96168.81
2022-11-14T03:54:38.669Z,96164.09
2022-11-14T03:57:24.257Z,96164.81
2022-11-14T04:00:10.516Z,96158.59
2022-11-14T04:02:57.335Z,96153.56
2022-11-14T04:05:46.670Z,96169.19
2022-11-14T04:08:32.930Z,96166.84
2022-11-14T04:11:19.961Z,96159.53
2022-11-14T04:14:05.770Z,96161.03
2022-11-14T04:16:51.303Z,96162.50
2022-11-14T04:19:36.905Z,96168.63
2022-11-14T04:22:22.458Z,96172.81
2022-11-14T04:25:09.583Z,96167.75
2022-11-14T04:27:55.414Z,96170.88
2022-11-14T04:30:41.307Z,96164.34
2022-11-14T04:33:27.315Z,96163.88
2022-11-14T04:36:12.894Z,96161.09
2022-11-14T04:38:58.938Z,96147.97
2022-11-14T04:41:44.350Z,96144.84
2022-11-14T04:44:30.331Z,96142.91
2022-11-14T04:47:15.956Z,96138.63
2022-11-14T04:50:02.207Z,96135.63
2022-11-14T04:52:51.149Z,96144.72
2022-11-14T04:55:37.128Z,96144.28
2022-11-14T04:58:22.816Z,96150.41
2022-11-14T05:01:13.979Z,96144.59
2022-11-14T05:03:59.670Z,96137.75
2022-11-14T05:06:45.426Z,96148.47
2022-11-14T05:09:31.259Z,96146.38
2022-11-14T05:12:16.832Z,96136.09
2022-11-14T05:15:02.491Z,96144.88
2022-11-14T05:17:48.602Z,96132.53
2022-11-14T05:20:34.405Z,96125.25
2022-11-14T05:23:22.945Z,96133.16
2022-11-14T05:26:11.827Z,96115.13
2022-11-14T05:28:57.214Z,96118.88
2022-11-14T05:31:48.225Z,96112.00
2022-11-14T05:34:33.552Z,96111.56
2022-11-14T05:37:19.458Z,96113.66
2022-11-14T05:40:06.576Z,96107.56
2022-11-14T05:42:56.285Z,96113.53
2022-11-14T05:45:41.843Z,96110.09
2022-11-14T05:48:29.086Z,96112.78
2022-11-14T05:51:15.033Z,96107.75
2022-11-14T05:54:01.303Z,96101.16
2022-11-14T05:56:46.842Z,96105.34
2022-11-14T05:59:32.750Z,96092.25
2022-11-14T06:02:18.536Z,96096.44
2022-11-14T06:05:04.441Z,96098.66
2022-11-14T06:07:57.227Z,96088.97
2022-11-14T06:10:42.809Z,96088.06
2022-11-14T06:13:28.513Z,96099.56
2022-11-14T06:16:16.706Z,96094.94
2022-11-14T06:19:02.218Z,96101.38
2022-11-14T06:21:47.576Z,96105.53
2022-11-14T06:24:33.159Z,96109.28
2022-11-14T06:27:18.730Z,96112.25
2022-11-14T06:30:04.910Z,96120.28
2022-11-14T06:32:50.422Z,96117.59
2022-11-14T06:35:37.274Z,96109.44
2022-11-14T06:38:23.231Z,96101.66
2022-11-14T06:41:11.218Z,96105.41
2022-11-14T06:43:56.821Z,96089.31
2022-11-14T06:46:42.465Z,96091.84
2022-11-14T06:49:28.149Z,96088.72
2022-11-14T06:52:13.563Z,96083.94
2022-11-14T06:55:01.856Z,96073.97
2022-11-14T06:57:53.746Z,96087.69
2022-11-14T07:00:39.434Z,96083.78
2022-11-14T07:03:25.161Z,96081.13
2022-11-14T07:06:13.678Z,96080.25
2022-11-14T07:09:00.285Z,96087.09
2022-11-14T07:11:47.091Z,96086.19
2022-11-14T07:14:33.147Z,96086.94
2022-11-14T07:17:18.849Z,96089.47
2022-11-14T07:20:04.905Z,96094.72
2022-11-14T07:22:50.528Z,96105.47
2022-11-14T07:25:36.643Z,96112.31
2022-11-14T07:28:22.513Z,96122.59
2022-11-14T07:31:10.573Z,96123.19
2022-11-14T07:33:56.257Z,96110.53
2022-11-14T07:36:42.040Z,96119.19
2022-11-14T07:39:27.769Z,96121.72
2022-11-14T07:42:13.484Z,96120.97
2022-11-14T07:44:59.200Z,96121.56
2022-11-14T07:47:44.919Z,96123.81
2022-11-14T07:50:31.262Z,96124.41
2022-11-14T07:53:18.152Z,96115.91
2022-11-14T07:56:09.876Z,96123.81
2022-11-14T07:58:58.374Z,96124.13
2022-11-14T08:01:44.091Z,96131.13
2022-11-14T08:04:29.898Z,96132.63
2022-11-14T08:07:15.417Z,96144.09
2022-11-14T08:10:00.942Z,96141.72
2022-11-14T08:12:56.209Z,96133.69
2022-11-14T08:15:50.662Z,96143.94
2022-11-14T08:18:36.461Z,96137.69
2022-11-14T08:21:22.231Z,96142.91
2022-11-14T08:24:08.516Z,96139.91
2022-11-14T08:26:53.998Z,96137.97
2022-11-14T08:29:39.574Z,96138.59
2022-11-14T08:32:25.225Z,96139.31
2022-11-14T08:35:10.842Z,96140.81
2022-11-14T08:37:56.510Z,96146.94
2022-11-14T08:40:42.241Z,96152.91
2022-11-14T08:43:28.174Z,96160.53
2022-11-14T08:46:13.620Z,96145.91
2022-11-14T08:48:59.482Z,96138.59
2022-11-14T08:51:45.313Z,96150.06
2022-11-14T08:54:31.347Z,96153.50
2022-11-14T08:57:16.980Z,96146.19
2022-11-14T09:00:03.030Z,96146.19
2022-11-14T09:02:48.723Z,96141.88
2022-11-14T09:05:34.867Z,96148.00
2022-11-14T09:08:20.691Z,96140.22
2022-11-14T09:11:09.251Z,96134.09
2022-11-14T09:13:55.707Z,96148.59
2022-11-14T09:16:44.135Z,96154.72
2022-11-14T09:19:29.562Z,96155.00
2022-11-14T09:22:15.495Z,96161.88
2022-11-14T09:25:01.611Z,96160.25
2022-11-14T09:27:47.133Z,96157.84
2022-11-14T09:30:33.458Z,96162.00
2022-11-14T09:33:18.807Z,96179.63
2022-11-14T09:36:06.849Z,96170.66
2022-11-14T09:38:52.832Z,96166.50
2022-11-14T09:41:41.673Z,96157.84
2022-11-14T09:44:41.033Z,96150.22
2022-11-14T09:47:32.081Z,96163.22
2022-11-14T09:50:26.753Z,96156.63
2022-11-14T09:53:22.807Z,96166.19
2022-11-14T09:56:17.322Z,96168.44
2022-11-14T09:59:03.160Z,96174.13
2022-11-14T10:02:01.857Z,96174.41
2022-11-14T10:05:14.949Z,96163.50
2022-11-14T10:08:15.697Z,96158.41
2022-11-14T10:11:10.352Z,96160.66
2022-11-14T10:14:23.137Z,96152.16
2022-11-14T10:17:23.558Z,96141.41
2022-11-14T10:20:30.557Z,96150.03
2022-11-14T10:23:31.564Z,96139.13
2022-11-14T10:26:30.421Z,96136.44
2022-11-14T10:29:28.313Z,96137.19
2022-11-14T10:32:50.148Z,96131.38
2022-11-14T10:35:46.354Z,96131.38
2022-11-14T10:38:53.558Z,96134.63
2022-11-14T10:41:56.698Z,96133.72
2022-11-14T10:45:18.283Z,96123.56
2022-11-14T10:48:16.222Z,96120.88
2022-11-14T10:51:14.036Z,96120.25
2022-11-14T10:54:23.087Z,96113.66
2022-11-14T10:57:20.316Z,96113.53
2022-11-14T11:00:27.106Z,96109.91
2022-11-14T11:03:12.751Z,96109.75
2022-11-14T11:05:58.375Z,96104.97
2022-11-14T11:09:07.778Z,96099.41
2022-11-14T11:12:02.543Z,96101.03
2022-11-14T11:14:50.779Z,96098.63
2022-11-14T11:17:42.812Z,96104.59
2022-11-14T11:20:41.664Z,96106.06
2022-11-14T11:23:28.365Z,96095.91
2022-11-14T11:26:22.438Z,96096.66
2022-11-14T11:29:11.212Z,96092.59
2022-11-14T11:31:59.998Z,96106.03
2022-11-14T11:34:46.014Z,96100.19
2022-11-14T11:37:33.999Z,96104.81
2022-11-14T11:40:30.614Z,96100.94
2022-11-14T11:43:43.613Z,96094.66
2022-11-14T11:46:43.260Z,96098.38
2022-11-14T11:49:45.411Z,96096.72
2022-11-14T11:52:40.409Z,96098.94
2022-11-14T11:55:30.561Z,96095.91
2022-11-14T11:58:42.425Z,96099.34
2022-11-14T12:01:27.948Z,96103.81
2022-11-14T12:04:13.883Z,96098.44
2022-11-14T12:07:16.399Z,96102.16
2022-11-14T12:10:11.751Z,96103.19
2022-11-14T12:13:24.438Z,96106.75
2022-11-14T12:16:15.587Z,96115.41
2022-11-14T12:19:28.580Z,96106.69
2022-11-14T12:22:30.750Z,96104.56
2022-11-14T12:25:48.686Z,96093.91
2022-11-14T12:29:04.966Z,96095.97
2022-11-14T12:31:56.461Z,96093.09
2022-11-14T12:34:47.536Z,96091.44
2022-11-14T12:37:38.136Z,96088.09
2022-11-14T12:40:29.161Z,96084.47
2022-11-14T12:43:40.152Z,96086.97
2022-11-14T12:46:26.336Z,96080.50
2022-11-14T12:49:49.678Z,96082.88
2022-11-14T12:52:44.141Z,96079.34
2022-11-14T12:55:30.510Z,96082.88
2022-11-14T12:58:34.504Z,96082.34
2022-11-14T13:01:44.611Z,96091.38
2022-11-14T13:04:42.676Z,96078.72
2022-11-14T13:07:33.844Z,96068.47
2022-11-14T13:10:40.407Z,96075.16
2022-11-14T13:13:44.717Z,96076.00
2022-11-14T13:16:51.066Z,96073.84
2022-11-14T13:20:06.490Z,96073.94
2022-11-14T13:22:52.265Z,96067.88
2022-11-14T13:25:38.443Z,96061.56
2022-11-14T13:28:46.076Z,96063.13
2022-11-14T13:31:37.552Z,96070.56
2022-11-14T13:34:48.179Z,96067.41
2022-11-14T13:37:50.111Z,96066.00
2022-11-14T13:40:47.396Z,96060.88
2022-11-14T13:43:57.885Z,96061.41
2022-11-14T13:46:54.872Z,96059.47
2022-11-14T13:49:43.713Z,96053.66
2022-11-14T13:52:34.397Z,96051.97
2022-11-14T13:55:50.888Z,96061.09
2022-11-14T13:59:01.302Z,96050.28
2022-11-14T14:02:21.684Z,96052.97
2022-11-14T14:05:28.000Z,96052.97
2022-11-14T14:08:41.494Z,96051.53
2022-11-14T14:11:43.155Z,96046.88
2022-11-14T14:14:48.229Z,96051.78
2022-11-14T14:17:36.634Z,96051.78
2022-11-14T14:20:30.341Z,96050.84
2022-11-14T14:23:24.975Z,96050.56
2022-11-14T14:26:55.878Z,96046.88
2022-11-14T14:29:53.073Z,96049.06
2022-11-14T14:32:38.594Z,96047.88
2022-11-14T14:35:29.847Z,96043.97
2022-11-14T14:38:26.922Z,96042.25
2022-11-14T14:41:14.779Z,96044.97
2022-11-14T14:44:00.483Z,96044.97
2022-11-14T14:46:46.431Z,96047.19
2022-11-14T14:49:38.341Z,96059.50
2022-11-14T14:52:38.269Z,96049.44
2022-11-14T14:55:28.026Z,96050.44
2022-11-14T14:58:26.315Z,96050.66
2022-11-14T15:01:13.549Z,96053.63
2022-11-14T15:04:13.842Z,96047.00
2022-11-14T15:06:59.560Z,96049.44
2022-11-14T15:10:03.066Z,96040.59
2022-11-14T15:12:49.763Z,96036.41
2022-11-14T15:15:36.346Z,96042.53
2022-11-14T15:18:28.768Z,96044.78
2022-11-14T15:21:20.632Z,96047.47
2022-11-14T15:24:23.992Z,96047.72
2022-11-14T15:27:15.409Z,96046.25
2022-11-14T15:30:08.458Z,96050.44
2022-11-14T15:33:01.592Z,96047.00
2022-11-14T15:35:47.385Z,96051.19
2022-11-14T15:38:49.222Z,96057.78
2022-11-14T15:41:34.892Z,96060.03
2022-11-14T15:44:32.746Z,96061.53
2022-11-14T15:47:40.562Z,96057.59
2022-11-14T15:50:33.491Z,96066.72
2022-11-14T15:53:29.854Z,96065.22
2022-11-14T15:56:15.835Z,96067.47
2022-11-14T15:59:01.936Z,96068.94
2022-11-14T16:01:51.813Z,96069.03
2022-11-14T16:04:44.388Z,96069.78
2022-11-14T16:07:30.223Z,96070.03
2022-11-14T16:10:25.342Z,96083.81
2022-11-14T16:13:11.649Z,96085.56
2022-11-14T16:15:57.272Z,96091.25
2022-11-14T16:18:42.908Z,96087.59
2022-11-14T16:21:29.617Z,96097.47
2022-11-14T16:24:21.431Z,96085.44
2022-11-14T16:27:10.004Z,96094.31
2022-11-14T16:29:55.459Z,96092.31
2022-11-14T16:32:42.215Z,96094.31
2022-11-14T16:35:28.275Z,96106.31
2022-11-14T16:38:14.446Z,96102.41
2022-11-14T16:41:00.557Z,96114.97
2022-11-14T16:43:46.560Z,96110.59
2022-11-14T16:46:32.490Z,96114.75
2022-11-14T16:49:19.758Z,96111.31
2022-11-14T16:52:07.261Z,96117.44
2022-11-14T16:54:53.077Z,96118.94
2022-11-14T16:57:39.384Z,96121.19
2022-11-14T17:00:24.955Z,96130.56
2022-11-14T17:03:10.557Z,96134.78
2022-11-14T17:05:56.073Z,96143.41
2022-11-14T17:08:41.673Z,96151.25
2022-11-14T17:11:27.818Z,96147.84
2022-11-14T17:14:14.006Z,96153.56
2022-11-14T17:17:02.901Z,96155.03
2022-11-14T17:19:50.309Z,96157.75
2022-11-14T17:22:36.204Z,96163.41
2022-11-14T17:25:23.264Z,96164.91
2022-11-14T17:28:08.775Z,96157.06
2022-11-14T17:30:58.200Z,96166.66
2022-11-14T17:33:44.436Z,96158.06
2022-11-14T17:36:31.341Z,96162.25
2022-11-14T17:39:20.166Z,96164.97
2022-11-14T17:42:07.521Z,96163.00
2022-11-14T17:45:01.516Z,96158.81
2022-11-14T17:47:46.893Z,96154.63
2022-11-14T17:50:37.411Z,96170.66
2022-11-14T17:53:24.096Z,96168.94
2022-11-14T17:56:18.425Z,96173.16
2022-11-14T17:59:04.105Z,96172.94
2022-11-14T18:01:50.104Z,96175.91
2022-11-14T18:04:35.483Z,96179.91
2022-11-14T18:07:21.713Z,96179.50
2022-11-14T18:10:07.888Z,96181.53
2022-11-14T18:12:53.189Z,96183.56
2022-11-14T18:15:39.415Z,96182.81
2022-11-14T18:18:26.500Z,96178.91
2022-11-14T18:21:20.427Z,96188.56
2022-11-14T18:24:06.308Z,96192.06
2022-11-14T18:26:52.172Z,96191.13
2022-11-14T18:29:38.368Z,96190.16
2022-11-14T18:32:23.614Z,96188.94
2022-11-14T18:35:10.216Z,96192.03
2022-11-14T18:37:55.958Z,96194.50
2022-11-14T18:40:43.722Z,96196.00
2022-11-14T18:43:32.862Z,96193.53
2022-11-14T18:46:21.948Z,96195.09
2022-11-14T18:49:07.365Z,96192.66
2022-11-14T18:51:55.080Z,96200.09
2022-11-14T18:54:41.314Z,96192.72
2022-11-14T18:57:30.015Z,96202.63
2022-11-14T19:00:16.016Z,96194.78
2022-11-14T19:03:05.993Z,96187.13
2022-11-14T19:05:52.184Z,96187.41
2022-11-14T19:08:39.988Z,96184.72
2022-11-14T19:11:44.609Z,96187.13
2022-11-14T19:14:30.357Z,96182.94
2022-11-14T19:17:21.024Z,96187.34
2022-11-14T19:20:14.421Z,96185.19
2022-11-14T19:23:00.342Z,96184.72
2022-11-14T19:25:46.279Z,96183.97
2022-11-14T19:28:31.907Z,96177.56
2022-11-14T19:31:18.460Z,96178.31
2022-11-14T19:34:04.791Z,96181.03
2022-11-14T19:36:59.773Z,96178.31
2022-11-14T19:39:46.351Z,96174.66
2022-11-14T19:42:32.152Z,96169.50
2022-11-14T19:45:17.799Z,96171.50
2022-11-14T19:48:03.361Z,96175.44
2022-11-14T19:50:49.019Z,96171.78
2022-11-14T19:53:36.821Z,96170.53
2022-11-14T19:56:24.026Z,96161.69
2022-11-14T19:59:14.415Z,96168.38
2022-11-14T20:02:01.902Z,96173.81
2022-11-14T20:04:47.437Z,96172.81
2022-11-14T20:07:35.510Z,96170.41
2022-11-14T20:10:21.530Z,96163.72
2022-11-14T20:13:07.069Z,96169.69
2022-11-14T20:15:53.115Z,96169.94
2022-11-14T20:18:39.338Z,96153.69
2022-11-14T20:21:29.544Z,96151.25
2022-11-14T20:24:21.658Z,96153.72
2022-11-14T20:27:07.323Z,96147.34
2022-11-14T20:29:52.842Z,96149.31
2022-11-14T20:32:38.567Z,96140.97
2022-11-14T20:35:24.488Z,96144.41
2022-11-14T20:38:10.062Z,96144.19
2022-11-14T20:40:59.080Z,96140.72
2022-11-14T20:43:44.965Z,96142.97
2022-11-14T20:46:30.492Z,96142.53
2022-11-14T20:49:16.352Z,96137.84
2022-11-14T20:52:05.028Z,96130.47
2022-11-14T20:54:50.772Z,96140.56
2022-11-14T20:57:36.943Z,96135.91
2022-11-14T21:00:23.134Z,96136.59
2022-11-14T21:03:10.318Z,96133.91
2022-11-14T21:05:57.310Z,96130.72
2022-11-14T21:08:43.620Z,96140.59
2022-11-14T21:11:29.378Z,96136.41
2022-11-14T21:14:15.040Z,96140.59
2022-11-14T21:17:00.811Z,96142.06
2022-11-14T21:19:46.321Z,96143.34
2022-11-14T21:22:31.803Z,96147.78
2022-11-14T21:25:17.615Z,96145.06
2022-11-14T21:28:03.538Z,96137.22
2022-11-14T21:30:49.172Z,96129.59
2022-11-14T21:33:35.198Z,96129.81
2022-11-14T21:39:26.820Z,96126.63
2022-11-14T21:42:17.139Z,96126.63
2022-11-14T21:45:07.925Z,96119.97
2022-11-14T21:47:53.890Z,96112.59
2022-11-14T21:50:39.421Z,96109.13
2022-11-14T21:53:25.131Z,96116.03
2022-11-14T21:56:26.788Z,96116.53
2022-11-14T21:59:16.252Z,96104.69
2022-11-14T22:02:20.730Z,96113.53
2022-11-14T22:05:10.041Z,96125.13
2022-11-14T22:07:58.132Z,96121.44
2022-11-14T22:10:44.219Z,96120.94
2022-11-14T22:13:30.897Z,96117.25
2022-11-14T22:16:19.955Z,96114.06
2022-11-14T22:19:06.073Z,96116.28
2022-11-14T22:21:51.828Z,96114.56
2022-11-14T22:24:37.750Z,96114.31
2022-11-14T22:27:23.362Z,96102.00
2022-11-14T22:30:09.709Z,96110.66
2022-11-14T22:32:55.400Z,96106.72
2022-11-14T22:35:40.909Z,96095.88
2022-11-14T22:38:29.789Z,96100.03
2022-11-14T22:41:20.580Z,96099.53
2022-11-14T22:44:08.928Z,96094.41
2022-11-14T22:46:54.619Z,96092.66
2022-11-14T22:49:40.174Z,96096.13
2022-11-14T22:52:25.929Z,96095.63
2022-11-14T22:55:17.708Z,96088.47
2022-11-14T22:58:03.872Z,96095.63
2022-11-14T23:00:50.181Z,96102.00
2022-11-14T23:03:36.182Z,96099.56
2022-11-14T23:06:22.775Z,96103.50
2022-11-14T23:09:08.921Z,96103.25
2022-11-14T23:11:54.362Z,96108.19
2022-11-14T23:14:40.066Z,96098.34
2022-11-14T23:17:27.447Z,96098.31
2022-11-14T23:20:16.608Z,96086.72
2022-11-14T23:23:03.649Z,96087.72
2022-11-14T23:25:49.603Z,96097.28
2022-11-14T23:28:35.781Z,96101.72
2022-11-14T23:31:21.388Z,96104.41
2022-11-14T23:34:07.370Z,96106.88
2022-11-14T23:36:53.181Z,96108.31
2022-11-14T23:39:38.824Z,96108.09
2022-11-14T23:42:24.405Z,96107.34
2022-11-14T23:45:10.011Z,96107.34
2022-11-14T23:47:55.817Z,96109.03
2022-11-14T23:50:41.913Z,96112.97
2022-11-14T23:53:28.196Z,96110.53
2022-11-14T23:56:14.429Z,96108.25
2022-11-14T23:58:59.844Z,96112.94
